Time;durP1;ratioP1;P1;durP2;ratioP2;P2;SDS_P1;SDS_P2;PMS_P1;PMS_P2;Temp;Humidity;BMP_temperature;BMP_pressure;BME280_temperature;BME280_humidity;BME280_pressure;Samples;Min_cycle;Max_cycle;Signal;HPM_P1;HPM_P2
2024/01/07 00:00:35;;;;;;;11.47;5.10;;;0.80;99.90;;;;;;5009473;28;20095;-70
2024/01/07 00:03:00;;;;;;;10.03;4.67;;;0.70;99.90;;;;;;5019337;28;20073;-70
2024/01/07 00:05:26;;;;;;;10.27;4.33;;;0.80;99.90;;;;;;5017078;28;20111;-71
2024/01/07 00:07:51;;;;;;;10.17;4.40;;;0.80;99.90;;;;;;5018097;28;20462;-70
2024/01/07 00:10:17;;;;;;;9.47;4.47;;;0.70;99.90;;;;;;5020751;28;20078;-71
2024/01/07 00:12:44;;;;;;;8.63;4.73;;;0.70;99.90;;;;;;5019637;28;20049;-70
2024/01/07 00:15:10;;;;;;;11.95;4.75;;;0.70;99.90;;;;;;5021122;28;20053;-70
2024/01/07 00:17:35;;;;;;;9.23;4.43;;;0.70;99.90;;;;;;5014162;28;20046;-71
2024/01/07 00:20:01;;;;;;;11.47;5.17;;;0.70;99.90;;;;;;5018876;28;20389;-71
2024/01/07 00:22:26;;;;;;;12.10;5.03;;;0.60;99.90;;;;;;5020425;28;20041;-70
2024/01/07 00:24:52;;;;;;;11.63;4.87;;;0.60;99.90;;;;;;5018572;28;20552;-70
2024/01/07 00:27:18;;;;;;;9.67;4.33;;;0.60;99.90;;;;;;5016674;28;20111;-70
2024/01/07 00:29:43;;;;;;;11.33;4.73;;;0.60;99.90;;;;;;5018821;28;20543;-71
2024/01/07 00:32:09;;;;;;;9.40;4.90;;;0.60;99.90;;;;;;5018613;28;20532;-70
2024/01/07 00:34:35;;;;;;;15.20;5.83;;;0.60;99.90;;;;;;5013505;28;20056;-71
2024/01/07 00:37:01;;;;;;;11.70;5.27;;;0.50;99.90;;;;;;5023936;28;20072;-71
2024/01/07 00:39:27;;;;;;;9.90;4.80;;;0.50;99.90;;;;;;5007786;28;20041;-70
2024/01/07 00:41:53;;;;;;;16.15;6.05;;;0.50;99.90;;;;;;5024128;28;20126;-70
2024/01/07 00:44:19;;;;;;;11.23;4.63;;;0.50;99.90;;;;;;5029254;28;20393;-70
2024/01/07 00:46:45;;;;;;;11.77;5.40;;;0.50;99.90;;;;;;5009509;28;20042;-70
2024/01/07 00:49:11;;;;;;;10.27;5.05;;;0.50;99.90;;;;;;5009147;28;20116;-70
2024/01/07 00:51:37;;;;;;;12.20;5.20;;;0.50;99.90;;;;;;5025980;28;20045;-71
2024/01/07 00:54:03;;;;;;;15.18;5.43;;;0.40;99.90;;;;;;5025810;28;20041;-70
2024/01/07 00:56:30;;;;;;;10.60;4.90;;;0.40;99.90;;;;;;5022037;28;20053;-70
2024/01/07 00:58:56;;;;;;;9.52;4.70;;;0.40;99.90;;;;;;5025247;28;20041;-70
2024/01/07 01:01:21;;;;;;;9.90;4.53;;;0.40;99.90;;;;;;5024673;28;20148;-69
2024/01/07 01:03:47;;;;;;;9.77;4.10;;;0.40;99.90;;;;;;5031124;28;20037;-69
2024/01/07 01:06:13;;;;;;;9.63;4.40;;;0.40;99.90;;;;;;5026252;28;20038;-69
2024/01/07 01:08:40;;;;;;;9.37;4.07;;;0.40;99.90;;;;;;5018726;28;20033;-69
2024/01/07 01:11:05;;;;;;;8.65;4.25;;;0.40;99.90;;;;;;5023551;28;20056;-69
2024/01/07 01:13:31;;;;;;;8.77;4.17;;;0.40;99.90;;;;;;5023837;28;20103;-69
2024/01/07 01:15:57;;;;;;;11.13;4.70;;;0.40;99.90;;;;;;5023269;28;20532;-69
2024/01/07 01:18:22;;;;;;;10.30;5.20;;;0.40;99.90;;;;;;5023511;28;20034;-69
2024/01/07 01:20:48;;;;;;;10.90;5.00;;;0.40;99.90;;;;;;5023732;28;20036;-69
2024/01/07 01:23:13;;;;;;;8.27;3.97;;;0.40;99.90;;;;;;5026646;28;20045;-68
2024/01/07 01:25:39;;;;;;;9.67;4.70;;;0.40;99.90;;;;;;5026926;28;20037;-69
2024/01/07 01:28:05;;;;;;;10.90;4.80;;;0.40;99.90;;;;;;5032735;28;20073;-69
2024/01/07 01:30:31;;;;;;;9.37;4.90;;;0.40;99.90;;;;;;5023235;28;20139;-69
2024/01/07 01:32:57;;;;;;;11.55;4.65;;;0.40;99.90;;;;;;5032524;28;20471;-69
2024/01/07 01:35:23;;;;;;;11.93;4.47;;;0.40;99.90;;;;;;5024409;28;20132;-68
2024/01/07 01:37:48;;;;;;;7.57;3.87;;;0.40;99.90;;;;;;5026053;28;20034;-68
2024/01/07 01:40:17;;;;;;;10.10;4.97;;;0.40;99.90;;;;;;5027656;28;20095;-68
2024/01/07 01:42:47;;;;;;;10.55;5.03;;;0.40;99.90;;;;;;5026808;28;20139;-69
2024/01/07 01:45:14;;;;;;;10.23;5.20;;;0.30;99.90;;;;;;5019527;28;20049;-68
2024/01/07 01:47:41;;;;;;;11.27;4.53;;;0.30;99.90;;;;;;5023741;28;20502;-72
2024/01/07 01:50:07;;;;;;;9.73;5.00;;;0.40;99.90;;;;;;5027360;28;20087;-74
2024/01/07 01:52:34;;;;;;;;;;;0.30;99.90;;;;;;5022815;28;20068;-72
2024/01/07 01:55:00;;;;;;;10.88;4.50;;;0.40;99.90;;;;;;5023592;28;19925;-72
2024/01/07 01:57:32;;;;;;;10.60;4.60;;;0.30;99.90;;;;;;5027175;28;20132;-73
2024/01/07 02:00:03;;;;;;;11.70;4.82;;;0.30;99.90;;;;;;5023351;28;20061;-72
2024/01/07 02:02:31;;;;;;;10.15;4.10;;;0.40;99.90;;;;;;5022900;28;20082;-72
2024/01/07 02:04:57;;;;;;;9.25;4.80;;;0.40;99.90;;;;;;5005720;28;20041;-72
2024/01/07 02:07:24;;;;;;;7.60;4.13;;;0.40;99.90;;;;;;5012802;28;20048;-72
2024/01/07 02:09:50;;;;;;;12.27;4.35;;;0.40;99.90;;;;;;5022778;28;20050;-72
2024/01/07 02:12:15;;;;;;;6.47;3.80;;;0.40;99.90;;;;;;5023511;28;20037;-73
2024/01/07 02:14:41;;;;;;;7.37;3.87;;;0.40;99.90;;;;;;5005895;28;20033;-71
2024/01/07 02:17:07;;;;;;;11.50;3.67;;;0.40;99.90;;;;;;5021845;28;20033;-72
2024/01/07 02:19:33;;;;;;;9.23;3.72;;;0.40;99.90;;;;;;5020919;28;20037;-73
2024/01/07 02:21:59;;;;;;;7.30;3.87;;;0.40;99.90;;;;;;5023737;28;20052;-72
2024/01/07 02:24:24;;;;;;;11.60;3.77;;;0.40;99.90;;;;;;5022882;28;20045;-71
2024/01/07 02:26:50;;;;;;;8.63;4.67;;;0.40;99.90;;;;;;5023787;28;20040;-72
2024/01/07 02:29:15;;;;;;;7.37;3.73;;;0.40;99.90;;;;;;5023104;28;20034;-73
2024/01/07 02:31:41;;;;;;;8.70;4.13;;;0.40;99.90;;;;;;5021617;28;20139;-72
2024/01/07 02:34:09;;;;;;;11.13;4.57;;;0.40;99.90;;;;;;5021430;28;20145;-72
2024/01/07 02:36:34;;;;;;;8.68;4.15;;;0.40;99.90;;;;;;5023849;28;20127;-72
2024/01/07 02:39:00;;;;;;;9.00;3.30;;;0.40;99.90;;;;;;5008401;28;20602;-72
2024/01/07 02:41:26;;;;;;;7.27;3.40;;;0.40;99.90;;;;;;5021284;28;20070;-73
2024/01/07 02:43:52;;;;;;;6.80;3.40;;;0.40;99.90;;;;;;5025892;28;20061;-73
2024/01/07 02:46:20;;;;;;;8.70;4.83;;;0.40;99.90;;;;;;5023885;28;20159;-74
2024/01/07 02:48:45;;;;;;;7.65;3.60;;;0.40;99.90;;;;;;5018170;28;20403;-73
2024/01/07 02:51:11;;;;;;;7.33;3.43;;;0.40;99.90;;;;;;5021858;28;20033;-71
2024/01/07 02:53:37;;;;;;;7.57;3.33;;;0.40;99.90;;;;;;5024510;28;20084;-72
2024/01/07 02:56:02;;;;;;;6.03;3.03;;;0.40;99.90;;;;;;5023462;28;20042;-72
2024/01/07 02:58:28;;;;;;;5.60;3.27;;;0.40;99.90;;;;;;5017308;28;20456;-73
2024/01/07 03:00:54;;;;;;;7.43;3.60;;;0.40;99.90;;;;;;5000765;28;20041;-72
2024/01/07 03:03:19;;;;;;;9.83;3.77;;;0.40;99.90;;;;;;5019943;28;20290;-72
2024/01/07 03:05:45;;;;;;;8.80;3.47;;;0.40;99.90;;;;;;5025599;28;20041;-72
2024/01/07 03:08:11;;;;;;;7.80;3.70;;;0.40;99.90;;;;;;5020989;28;20405;-72
2024/01/07 03:10:36;;;;;;;6.90;3.60;;;0.40;99.90;;;;;;5022025;28;20650;-73
2024/01/07 03:13:03;;;;;;;7.53;3.43;;;0.40;99.90;;;;;;5021118;28;20048;-72
2024/01/07 03:15:28;;;;;;;7.50;3.42;;;0.40;99.90;;;;;;5022256;28;20146;-73
2024/01/07 03:17:54;;;;;;;9.10;3.33;;;0.40;99.90;;;;;;5021171;28;20072;-72
2024/01/07 03:20:19;;;;;;;8.93;3.60;;;0.40;99.90;;;;;;5023074;28;20501;-72
2024/01/07 03:22:45;;;;;;;5.53;3.07;;;0.40;99.90;;;;;;5022230;28;20115;-72
2024/01/07 03:25:11;;;;;;;7.93;3.23;;;0.40;99.90;;;;;;5023492;28;20577;-72
2024/01/07 03:27:36;;;;;;;5.77;3.20;;;0.40;99.90;;;;;;5021617;28;20785;-72
2024/01/07 03:30:02;;;;;;;9.00;3.67;;;0.40;99.90;;;;;;5018646;28;20132;-72
2024/01/07 03:32:28;;;;;;;5.78;3.10;;;0.40;99.90;;;;;;5022408;28;20045;-72
2024/01/07 03:34:54;;;;;;;6.87;2.73;;;0.40;99.90;;;;;;5021805;28;20049;-73
2024/01/07 03:37:19;;;;;;;9.60;3.13;;;0.40;99.90;;;;;;5022123;28;20057;-74
2024/01/07 03:39:47;;;;;;;6.23;2.70;;;0.40;99.90;;;;;;5025176;28;20068;-73
2024/01/07 03:42:13;;;;;;;5.45;2.60;;;0.40;99.90;;;;;;5022915;28;20081;-72
2024/01/07 03:44:39;;;;;;;7.53;3.13;;;0.50;99.90;;;;;;5021274;28;20429;-74
2024/01/07 03:47:06;;;;;;;6.80;3.42;;;0.40;99.90;;;;;;5003665;28;20041;-72
2024/01/07 03:49:31;;;;;;;6.25;2.78;;;0.50;99.90;;;;;;5022771;28;20040;-72
2024/01/07 03:51:57;;;;;;;9.30;2.97;;;0.50;99.90;;;;;;5022504;28;20049;-72
2024/01/07 03:54:23;;;;;;;8.97;3.33;;;0.50;99.90;;;;;;5022403;28;20038;-73
2024/01/07 03:56:48;;;;;;;4.70;2.53;;;0.50;99.90;;;;;;5020697;28;20093;-72
2024/01/07 03:59:14;;;;;;;8.17;3.03;;;0.50;99.90;;;;;;5019270;28;20037;-72
2024/01/07 04:01:39;;;;;;;9.10;2.73;;;0.50;99.90;;;;;;5021449;28;20045;-72
2024/01/07 04:04:05;;;;;;;7.40;2.90;;;0.40;99.90;;;;;;5019275;28;20238;-73
2024/01/07 04:06:31;;;;;;;5.63;2.40;;;0.50;99.90;;;;;;5021584;28;20048;-72
2024/01/07 04:08:56;;;;;;;5.60;2.67;;;0.40;99.90;;;;;;5022836;28;20101;-73
2024/01/07 04:11:22;;;;;;;6.17;3.27;;;0.50;99.90;;;;;;5021408;28;20037;-72
2024/01/07 04:13:47;;;;;;;4.80;2.53;;;0.40;99.90;;;;;;5020898;28;20038;-74
2024/01/07 04:16:20;;;;;;;5.00;2.47;;;0.40;99.90;;;;;;5023425;28;20075;-72
2024/01/07 04:18:46;;;;;;;5.57;2.78;;;0.40;99.90;;;;;;5012202;28;20095;-73
2024/01/07 04:21:12;;;;;;;8.80;2.55;;;0.50;99.90;;;;;;5026173;28;20045;-72
2024/01/07 04:23:40;;;;;;;6.50;2.33;;;0.40;99.90;;;;;;5025121;28;20060;-72
2024/01/07 04:26:07;;;;;;;5.13;2.22;;;0.40;99.90;;;;;;5026283;28;20579;-72
2024/01/07 04:28:32;;;;;;;5.25;2.30;;;0.40;99.90;;;;;;5023265;28;20107;-73
2024/01/07 04:30:58;;;;;;;4.40;2.40;;;0.40;99.90;;;;;;5024011;28;20140;-72
2024/01/07 04:33:23;;;;;;;6.53;2.00;;;0.40;99.90;;;;;;5021077;28;20038;-72
2024/01/07 04:35:49;;;;;;;4.20;2.37;;;0.40;99.90;;;;;;5026239;28;20068;-72
2024/01/07 04:38:15;;;;;;;10.27;2.73;;;0.40;99.90;;;;;;5019633;28;20038;-72
2024/01/07 04:40:40;;;;;;;5.50;2.53;;;0.40;99.90;;;;;;5026186;28;20048;-73
2024/01/07 04:43:06;;;;;;;4.40;2.30;;;0.40;99.90;;;;;;5023966;28;20069;-72
2024/01/07 04:45:32;;;;;;;4.90;2.17;;;0.40;99.90;;;;;;5030767;28;20497;-69
2024/01/07 04:47:57;;;;;;;4.40;2.10;;;0.40;99.90;;;;;;5007622;28;20065;-73
2024/01/07 04:50:23;;;;;;;4.23;2.13;;;0.40;99.90;;;;;;5026481;28;20516;-72
2024/01/07 04:52:49;;;;;;;2.60;1.70;;;0.40;99.90;;;;;;5027484;28;20403;-72
2024/01/07 04:55:14;;;;;;;4.70;2.20;;;0.30;99.90;;;;;;5024024;28;20064;-72
2024/01/07 04:57:40;;;;;;;5.73;2.40;;;0.40;99.90;;;;;;5009219;28;20452;-71
2024/01/07 05:00:06;;;;;;;7.30;2.60;;;0.40;99.90;;;;;;5006881;28;20045;-75
2024/01/07 05:02:32;;;;;;;3.60;2.08;;;0.40;99.90;;;;;;5020886;28;20038;-73
2024/01/07 05:04:57;;;;;;;6.40;1.87;;;0.40;99.90;;;;;;5023644;28;20477;-74
2024/01/07 05:07:23;;;;;;;6.03;1.80;;;0.40;99.90;;;;;;5026121;28;20111;-73
2024/01/07 05:09:48;;;;;;;4.37;1.83;;;0.40;99.90;;;;;;5025710;28;20041;-72
2024/01/07 05:12:14;;;;;;;5.20;1.77;;;0.40;99.90;;;;;;5021405;28;20131;-73
2024/01/07 05:14:42;;;;;;;4.27;2.10;;;0.40;99.90;;;;;;5023805;28;20430;-72
2024/01/07 05:17:08;;;;;;;4.20;1.80;;;0.40;99.90;;;;;;5026435;28;20124;-74
2024/01/07 05:19:34;;;;;;;2.63;1.43;;;0.40;99.90;;;;;;5030283;28;20136;-72
2024/01/07 05:22:00;;;;;;;4.30;1.63;;;0.40;99.90;;;;;;5024626;28;20064;-72
2024/01/07 05:24:26;;;;;;;4.60;1.88;;;0.40;99.90;;;;;;5024255;28;20116;-73
2024/01/07 05:26:52;;;;;;;4.03;1.73;;;0.40;99.90;;;;;;5026765;28;20037;-73
2024/01/07 05:29:17;;;;;;;2.67;1.27;;;0.30;99.90;;;;;;5012138;28;20429;-72
2024/01/07 05:31:43;;;;;;;5.77;1.80;;;0.40;99.90;;;;;;5023444;28;20037;-72
2024/01/07 05:34:08;;;;;;;2.73;1.27;;;0.40;99.90;;;;;;5023590;28;20074;-72
2024/01/07 05:36:34;;;;;;;2.27;1.27;;;0.40;99.90;;;;;;5026117;28;20067;-72
2024/01/07 05:39:00;;;;;;;4.03;1.27;;;0.40;99.90;;;;;;5024300;28;20060;-74
2024/01/07 05:41:25;;;;;;;3.53;1.30;;;0.40;99.90;;;;;;5024682;28;20402;-72
2024/01/07 05:43:51;;;;;;;6.47;1.80;;;0.40;99.90;;;;;;5008118;28;20048;-72
2024/01/07 05:46:17;;;;;;;4.43;1.13;;;0.40;99.90;;;;;;5025298;28;20398;-73
2024/01/07 05:48:49;;;;;;;6.47;1.30;;;0.40;99.90;;;;;;5022589;28;20040;-72
2024/01/07 05:51:16;;;;;;;2.85;1.20;;;0.40;99.90;;;;;;5023152;28;20042;-72
2024/01/07 05:53:44;;;;;;;2.55;1.30;;;0.40;99.90;;;;;;5008912;28;20040;-72
2024/01/07 05:56:10;;;;;;;3.20;1.30;;;0.40;99.90;;;;;;5022121;28;20581;-73
2024/01/07 05:58:35;;;;;;;1.60;0.90;;;0.50;99.90;;;;;;5023526;28;20053;-73
2024/01/07 06:01:01;;;;;;;3.93;1.43;;;0.40;99.90;;;;;;5024877;28;20037;-72
2024/01/07 06:03:27;;;;;;;2.77;0.90;;;0.40;99.90;;;;;;5021824;28;20116;-72
2024/01/07 06:05:53;;;;;;;4.00;1.37;;;0.40;99.90;;;;;;5024432;28;20038;-73
2024/01/07 06:08:18;;;;;;;6.47;1.23;;;0.40;99.90;;;;;;5025562;28;20038;-72
2024/01/07 06:10:44;;;;;;;4.03;1.33;;;0.40;99.90;;;;;;5022411;28;20091;-73
2024/01/07 06:13:10;;;;;;;2.55;1.23;;;0.40;99.90;;;;;;5022017;28;20074;-73
2024/01/07 06:15:36;;;;;;;2.53;1.20;;;0.50;99.90;;;;;;5022596;28;20041;-73
2024/01/07 06:18:02;;;;;;;3.90;1.73;;;0.50;99.90;;;;;;5026642;28;20049;-73
2024/01/07 06:20:28;;;;;;;1.98;1.30;;;0.40;99.90;;;;;;5023054;28;20045;-73
2024/01/07 06:22:53;;;;;;;3.28;1.30;;;0.40;99.90;;;;;;5024408;28;20132;-74
2024/01/07 06:25:20;;;;;;;3.20;1.10;;;0.40;99.90;;;;;;5025806;28;20037;-73
2024/01/07 06:27:45;;;;;;;3.08;1.10;;;0.40;99.90;;;;;;5025544;28;20215;-74
2024/01/07 06:30:12;;;;;;;1.97;0.90;;;0.40;99.90;;;;;;5019774;28;20041;-72
2024/01/07 06:32:37;;;;;;;3.47;1.02;;;0.50;99.90;;;;;;5023931;28;20276;-73
2024/01/07 06:35:04;;;;;;;3.57;1.57;;;0.40;99.90;;;;;;5023284;28;20606;-72
2024/01/07 06:37:30;;;;;;;2.38;1.10;;;0.50;99.90;;;;;;5022767;28;20041;-73
2024/01/07 06:39:58;;;;;;;1.97;1.20;;;0.50;99.90;;;;;;5022767;28;20044;-73
2024/01/07 06:42:24;;;;;;;1.73;1.00;;;0.50;99.90;;;;;;5022712;28;20124;-73
2024/01/07 06:44:49;;;;;;;2.97;1.45;;;0.50;99.90;;;;;;5021449;28;20045;-73
2024/01/07 06:47:15;;;;;;;6.53;1.13;;;0.50;99.90;;;;;;5023938;28;20041;-73
2024/01/07 06:49:41;;;;;;;5.77;1.20;;;0.50;99.90;;;;;;5005734;28;20034;-72
2024/01/07 06:52:06;;;;;;;4.43;1.27;;;0.50;99.90;;;;;;5023823;28;20449;-73
2024/01/07 06:54:33;;;;;;;1.80;0.97;;;0.50;99.90;;;;;;5020937;28;20120;-73
2024/01/07 06:56:58;;;;;;;1.98;0.70;;;0.50;99.90;;;;;;5025364;28;20073;-73
2024/01/07 06:59:24;;;;;;;2.83;1.10;;;0.50;99.90;;;;;;5020445;28;20080;-72
2024/01/07 07:01:49;;;;;;;2.07;0.90;;;0.50;99.90;;;;;;5025327;28;20098;-73
2024/01/07 07:04:15;;;;;;;2.87;1.00;;;0.50;99.90;;;;;;5019769;28;20037;-75
2024/01/07 07:06:41;;;;;;;1.80;1.00;;;0.50;99.90;;;;;;5024728;28;20048;-74
2024/01/07 07:09:06;;;;;;;2.20;1.10;;;0.50;99.90;;;;;;5022377;28;20045;-75
2024/01/07 07:11:32;;;;;;;2.77;0.80;;;0.50;99.90;;;;;;5022506;28;20049;-73
2024/01/07 07:13:58;;;;;;;3.05;0.90;;;0.50;99.90;;;;;;5019143;28;20104;-74
2024/01/07 07:16:23;;;;;;;2.00;1.00;;;0.50;99.90;;;;;;5021138;28;20053;-74
2024/01/07 07:18:49;;;;;;;3.90;1.53;;;0.50;99.90;;;;;;5023372;28;20115;-73
2024/01/07 07:21:15;;;;;;;2.27;0.97;;;0.50;99.90;;;;;;5019912;28;20132;-74
2024/01/07 07:23:40;;;;;;;3.53;1.30;;;0.50;99.90;;;;;;5004793;28;20151;-74
2024/01/07 07:26:08;;;;;;;2.27;0.60;;;0.50;99.90;;;;;;5007712;28;20088;-73
2024/01/07 07:28:34;;;;;;;2.28;0.77;;;0.50;99.90;;;;;;5019819;28;20123;-75
2024/01/07 07:31:00;;;;;;;2.70;0.70;;;0.50;99.90;;;;;;5017694;28;20084;-73
2024/01/07 07:33:26;;;;;;;4.23;0.90;;;0.50;99.90;;;;;;5021467;28;20037;-73
2024/01/07 07:35:51;;;;;;;1.13;0.63;;;0.40;99.90;;;;;;5016186;28;20037;-74
2024/01/07 07:38:17;;;;;;;5.87;1.00;;;0.40;99.90;;;;;;5021969;28;20045;-75
2024/01/07 07:40:44;;;;;;;2.10;0.87;;;0.50;99.90;;;;;;5022707;28;20418;-74
2024/01/07 07:43:10;;;;;;;2.03;0.90;;;0.40;99.90;;;;;;5005316;28;20060;-73
2024/01/07 07:45:35;;;;;;;1.30;0.50;;;0.40;99.90;;;;;;5021608;28;20037;-74
2024/01/07 07:48:01;;;;;;;2.07;0.80;;;0.40;99.90;;;;;;5023273;28;20563;-73
2024/01/07 07:50:27;;;;;;;2.17;0.80;;;0.40;99.90;;;;;;5020561;28;20553;-73
2024/01/07 07:52:53;;;;;;;2.03;0.87;;;0.40;99.90;;;;;;5018477;28;20050;-72
2024/01/07 07:55:19;;;;;;;2.05;0.85;;;0.40;99.90;;;;;;5023131;28;20528;-73
2024/01/07 07:57:46;;;;;;;2.22;1.00;;;0.40;99.90;;;;;;5024697;28;20037;-74
2024/01/07 08:00:12;;;;;;;1.55;0.90;;;0.30;99.90;;;;;;5023008;28;20037;-74
2024/01/07 08:02:39;;;;;;;4.78;1.05;;;0.30;99.90;;;;;;5012539;28;20069;-73
2024/01/07 08:05:04;;;;;;;2.60;0.90;;;0.30;99.90;;;;;;5007999;28;20050;-74
2024/01/07 08:07:30;;;;;;;3.22;0.93;;;0.20;99.90;;;;;;5021474;28;20046;-72
2024/01/07 08:09:57;;;;;;;2.57;1.00;;;0.20;99.90;;;;;;5023303;28;20046;-73
2024/01/07 08:12:23;;;;;;;2.70;1.42;;;0.10;99.90;;;;;;5025865;28;20045;-69
2024/01/07 08:14:49;;;;;;;2.28;0.75;;;0.10;99.90;;;;;;5004028;28;20402;-74
2024/01/07 08:17:15;;;;;;;1.27;0.80;;;0.10;99.90;;;;;;5009060;28;20045;-72
2024/01/07 08:19:41;;;;;;;4.17;1.20;;;0.00;99.90;;;;;;5003710;28;20291;-73
2024/01/07 08:22:06;;;;;;;1.48;0.65;;;0.00;99.90;;;;;;5021029;28;20128;-69
2024/01/07 08:24:32;;;;;;;3.30;1.00;;;0.00;99.90;;;;;;5025148;28;20391;-70
2024/01/07 08:26:58;;;;;;;3.77;0.90;;;-0.10;99.90;;;;;;5027300;28;20143;-69
2024/01/07 08:29:24;;;;;;;3.20;1.27;;;-0.10;99.90;;;;;;5025395;28;20725;-69
2024/01/07 08:31:50;;;;;;;1.70;0.87;;;-0.20;99.90;;;;;;5027361;28;20124;-69
2024/01/07 08:34:16;;;;;;;1.85;1.00;;;-0.20;99.90;;;;;;5019189;28;20434;-69
2024/01/07 08:36:41;;;;;;;2.23;0.77;;;-0.20;99.90;;;;;;5033952;28;20049;-69
2024/01/07 08:39:08;;;;;;;2.00;1.17;;;-0.20;99.90;;;;;;5026090;28;20049;-69
2024/01/07 08:41:33;;;;;;;1.75;0.90;;;-0.20;99.90;;;;;;5027228;28;20323;-70
2024/01/07 08:43:59;;;;;;;5.87;1.57;;;-0.20;99.90;;;;;;5029612;28;20054;-69
2024/01/07 08:46:25;;;;;;;4.30;1.30;;;-0.20;99.90;;;;;;5025282;28;20057;-69
2024/01/07 08:48:50;;;;;;;4.87;1.40;;;-0.20;99.90;;;;;;5026449;28;20034;-69
2024/01/07 08:51:16;;;;;;;2.90;1.20;;;-0.10;99.90;;;;;;5026025;28;20038;-69
2024/01/07 08:53:42;;;;;;;1.90;1.07;;;-0.10;99.90;;;;;;5027109;28;20164;-69
2024/01/07 08:56:08;;;;;;;3.50;1.27;;;-0.10;99.90;;;;;;5040250;28;20153;-69
2024/01/07 08:58:34;;;;;;;;;;;-0.10;99.90;;;;;;5027633;28;20096;-69
2024/01/07 09:01:00;;;;;;;3.85;1.00;;;0.00;99.90;;;;;;5021295;28;20019;-69
2024/01/07 09:03:25;;;;;;;2.70;1.07;;;0.10;99.90;;;;;;4990950;28;20209;-69
2024/01/07 09:05:51;;;;;;;4.30;1.23;;;0.20;99.90;;;;;;5030448;28;20544;-70
2024/01/07 09:08:16;;;;;;;2.57;0.97;;;0.20;99.90;;;;;;5020696;28;20037;-69
2024/01/07 09:10:42;;;;;;;2.20;1.20;;;0.30;99.90;;;;;;5044920;28;20037;-69
2024/01/07 09:13:08;;;;;;;2.40;0.93;;;0.30;99.90;;;;;;5040330;28;20049;-69
2024/01/07 09:15:34;;;;;;;1.70;1.07;;;0.30;99.90;;;;;;5038758;28;20290;-69
2024/01/07 09:17:59;;;;;;;3.70;0.90;;;0.40;99.90;;;;;;5027746;28;20430;-69
2024/01/07 09:20:25;;;;;;;5.90;1.40;;;0.40;99.90;;;;;;5031350;28;20145;-69
2024/01/07 09:22:51;;;;;;;6.47;1.20;;;0.40;99.90;;;;;;5031134;28;20529;-69
2024/01/07 09:25:16;;;;;;;1.73;0.90;;;0.40;99.90;;;;;;5037573;28;20187;-69
2024/01/07 09:27:43;;;;;;;1.90;0.90;;;0.50;99.90;;;;;;5038272;28;20037;-69
2024/01/07 09:30:11;;;;;;;;;;;0.50;99.90;;;;;;5004791;28;20037;-69
2024/01/07 09:32:37;;;;;;;3.42;1.15;;;0.50;99.90;;;;;;5026233;28;20324;-69
2024/01/07 09:35:05;;;;;;;4.53;1.10;;;0.50;99.90;;;;;;5030653;28;20050;-71
2024/01/07 09:37:31;;;;;;;4.25;1.23;;;0.60;99.90;;;;;;5035006;28;20052;-69
2024/01/07 09:39:57;;;;;;;3.20;1.15;;;0.60;99.90;;;;;;5032960;28;20041;-69
2024/01/07 09:42:23;;;;;;;2.65;1.10;;;0.60;99.90;;;;;;5030008;28;20502;-69
2024/01/07 09:44:50;;;;;;;3.30;1.40;;;0.70;99.90;;;;;;5032767;28;20065;-69
2024/01/07 09:47:16;;;;;;;2.05;1.00;;;0.70;99.90;;;;;;5008914;28;20041;-69
2024/01/07 09:49:43;;;;;;;3.10;1.33;;;0.70;99.90;;;;;;5029639;28;20040;-69
2024/01/07 09:52:11;;;;;;;2.42;1.20;;;0.80;99.90;;;;;;5032367;28;20037;-69
2024/01/07 09:54:38;;;;;;;3.05;1.20;;;0.80;99.90;;;;;;5031128;28;20048;-69
2024/01/07 09:57:08;;;;;;;1.92;1.10;;;0.80;99.90;;;;;;5025523;28;20045;-69
2024/01/07 09:59:38;;;;;;;2.95;1.02;;;0.80;99.90;;;;;;5030350;28;20095;-69
2024/01/07 10:02:04;;;;;;;1.73;0.80;;;0.80;99.90;;;;;;5030074;28;20069;-69
2024/01/07 10:04:31;;;;;;;2.63;0.90;;;0.90;99.90;;;;;;5027099;28;20347;-69
2024/01/07 10:06:57;;;;;;;5.15;1.45;;;0.90;99.90;;;;;;5033777;28;20188;-69
2024/01/07 10:09:25;;;;;;;3.25;0.75;;;0.90;99.90;;;;;;5027663;28;20079;-68
2024/01/07 10:11:51;;;;;;;3.28;1.20;;;0.90;99.90;;;;;;5026920;28;20068;-69
2024/01/07 10:14:16;;;;;;;3.27;1.40;;;0.90;99.90;;;;;;5031060;28;20037;-69
2024/01/07 10:16:42;;;;;;;2.67;1.30;;;0.90;99.90;;;;;;5030190;28;20041;-69
2024/01/07 10:19:08;;;;;;;3.80;0.97;;;1.00;99.90;;;;;;5033746;28;20044;-69
2024/01/07 10:21:34;;;;;;;1.87;0.80;;;1.00;99.90;;;;;;5034209;28;20079;-69
2024/01/07 10:24:13;;;;;;;3.45;1.30;;;1.00;99.90;;;;;;5029317;28;20128;-69
2024/01/07 10:26:40;;;;;;;2.58;1.20;;;1.00;99.90;;;;;;5030808;28;20050;-69
2024/01/07 10:29:07;;;;;;;2.40;1.10;;;1.00;99.90;;;;;;5028082;28;20088;-69
2024/01/07 10:31:32;;;;;;;2.58;1.25;;;1.00;99.90;;;;;;5030034;28;20055;-69
2024/01/07 10:33:58;;;;;;;2.60;0.90;;;1.10;99.90;;;;;;5024979;28;20116;-69
2024/01/07 10:36:27;;;;;;;4.40;1.20;;;1.10;99.90;;;;;;5035498;28;20041;-69
2024/01/07 10:38:54;;;;;;;5.15;2.13;;;1.10;99.90;;;;;;5025217;28;20401;-69
2024/01/07 10:41:20;;;;;;;2.95;0.98;;;1.10;99.90;;;;;;5006755;28;20184;-69
2024/01/07 10:43:50;;;;;;;6.32;1.05;;;1.10;99.90;;;;;;5031860;28;20563;-69
2024/01/07 10:46:16;;;;;;;2.67;1.25;;;1.20;99.90;;;;;;5027817;28;20053;-69
2024/01/07 10:49:14;;;;;;;3.03;1.25;;;1.20;99.90;;;;;;5027582;28;20393;-70
2024/01/07 10:51:48;;;;;;;5.43;1.33;;;1.20;99.90;;;;;;5031241;28;20421;-71
2024/01/07 10:54:15;;;;;;;2.42;1.23;;;1.20;99.90;;;;;;5027881;28;20111;-71
2024/01/07 10:56:48;;;;;;;3.75;1.20;;;1.20;99.90;;;;;;5027524;28;20280;-71
2024/01/07 10:59:15;;;;;;;2.08;1.15;;;1.20;99.90;;;;;;5027903;28;20034;-71
2024/01/07 11:01:40;;;;;;;4.55;1.08;;;1.30;99.90;;;;;;5024375;28;20046;-71
2024/01/07 11:04:15;;;;;;;2.87;1.23;;;1.30;99.90;;;;;;5028688;28;20529;-71
2024/01/07 11:06:55;;;;;;;3.05;1.02;;;1.30;99.90;;;;;;5026384;28;20118;-71
2024/01/07 11:09:23;;;;;;;2.70;1.05;;;1.30;99.90;;;;;;5027811;28;20367;-70
2024/01/07 11:11:50;;;;;;;3.97;1.20;;;1.30;99.90;;;;;;5025525;28;20546;-71
2024/01/07 11:14:42;;;;;;;4.45;1.13;;;1.30;99.90;;;;;;5024842;28;20398;-71
2024/01/07 11:17:09;;;;;;;2.53;1.58;;;1.20;99.90;;;;;;5020335;28;20446;-71
2024/01/07 11:19:53;;;;;;;3.05;1.55;;;1.20;99.90;;;;;;5018347;28;20373;-70
2024/01/07 11:22:28;;;;;;;4.57;1.60;;;1.20;99.90;;;;;;5029018;28;20053;-71
2024/01/07 11:24:59;;;;;;;3.33;1.73;;;1.20;99.90;;;;;;5024018;28;20115;-70
2024/01/07 11:27:26;;;;;;;3.50;1.48;;;1.20;99.90;;;;;;5016830;28;20091;-70
2024/01/07 11:29:58;;;;;;;3.80;1.23;;;1.20;99.90;;;;;;5029507;28;20056;-70
2024/01/07 11:32:34;;;;;;;5.00;1.05;;;1.30;99.90;;;;;;5026109;28;20049;-70
2024/01/07 11:35:04;;;;;;;3.08;1.40;;;1.40;99.90;;;;;;5021471;28;20506;-70
2024/01/07 11:37:29;;;;;;;4.15;1.42;;;1.40;99.90;;;;;;5026051;28;20103;-70
2024/01/07 11:39:58;;;;;;;2.50;1.13;;;1.40;99.90;;;;;;5028065;28;20057;-70
2024/01/07 11:42:24;;;;;;;4.93;1.33;;;1.50;99.90;;;;;;5030380;28;20045;-70
2024/01/07 11:44:54;;;;;;;2.30;1.03;;;1.50;99.90;;;;;;5028534;28;20516;-70
2024/01/07 11:47:21;;;;;;;5.00;1.38;;;1.50;99.90;;;;;;5037114;28;20238;-70
2024/01/07 11:49:51;;;;;;;3.25;1.25;;;1.70;99.90;;;;;;5031156;28;20036;-70
2024/01/07 11:52:17;;;;;;;2.10;1.20;;;1.70;99.90;;;;;;5026956;28;20046;-70
2024/01/07 11:54:43;;;;;;;2.75;1.02;;;1.70;99.90;;;;;;5033266;28;20405;-70
2024/01/07 11:57:10;;;;;;;4.07;1.60;;;1.80;99.90;;;;;;5029664;28;20128;-70
2024/01/07 11:59:36;;;;;;;3.47;2.08;;;1.80;99.90;;;;;;5032003;28;20087;-70
2024/01/07 12:02:04;;;;;;;2.60;1.38;;;1.90;99.90;;;;;;5030596;28;20038;-70
2024/01/07 12:04:33;;;;;;;2.45;1.30;;;1.90;99.90;;;;;;5030419;28;20037;-70
2024/01/07 12:06:59;;;;;;;2.17;1.20;;;2.00;99.90;;;;;;5025904;28;20045;-70
2024/01/07 12:09:25;;;;;;;4.70;1.77;;;2.10;99.90;;;;;;5023861;28;20037;-70
2024/01/07 12:11:52;;;;;;;3.17;1.80;;;2.00;99.90;;;;;;5026972;28;20042;-70
2024/01/07 12:14:19;;;;;;;;;;;2.00;99.90;;;;;;5011780;28;20452;-70
2024/01/07 12:16:45;;;;;;;4.13;1.40;;;2.10;99.90;;;;;;5029918;28;20357;-70
2024/01/07 12:19:10;;;;;;;4.00;1.83;;;2.10;99.90;;;;;;5005994;28;20053;-70
2024/01/07 12:21:37;;;;;;;4.50;1.57;;;2.10;99.90;;;;;;5032456;28;20498;-70
2024/01/07 12:24:04;;;;;;;6.93;1.67;;;2.00;99.90;;;;;;5029408;28;20049;-70
2024/01/07 12:26:30;;;;;;;4.13;1.52;;;1.90;99.90;;;;;;5024756;28;20091;-70
2024/01/07 12:29:04;;;;;;;4.53;1.60;;;1.90;99.90;;;;;;5026736;28;20064;-70
2024/01/07 12:31:31;;;;;;;3.45;1.65;;;1.90;99.90;;;;;;5019902;28;20037;-70
2024/01/07 12:33:57;;;;;;;3.90;2.17;;;1.90;99.90;;;;;;5028218;28;20520;-70
2024/01/07 12:36:24;;;;;;;4.88;2.30;;;1.90;99.90;;;;;;5026671;28;20502;-70
2024/01/07 12:38:51;;;;;;;8.18;2.22;;;1.90;99.90;;;;;;5037265;28;20443;-70
2024/01/07 12:41:17;;;;;;;5.75;2.55;;;2.00;99.90;;;;;;5027329;28;20111;-70
2024/01/07 12:43:43;;;;;;;8.73;2.50;;;2.00;99.90;;;;;;5029281;28;20042;-70
2024/01/07 12:46:08;;;;;;;5.97;2.70;;;2.10;99.90;;;;;;5032310;28;20091;-70
2024/01/07 12:48:34;;;;;;;4.70;2.10;;;2.10;99.90;;;;;;5030776;28;20034;-70
2024/01/07 12:51:00;;;;;;;4.17;2.10;;;2.10;99.90;;;;;;5031046;28;20041;-69
2024/01/07 12:53:29;;;;;;;;;;;2.20;99.90;;;;;;5014820;28;20037;-70